sensor_id;sensor_type;location;lat;lon;timestamp;temperature;humidity
21672;DHT22;10997;52.242;8.168;2022-09-09T00:05:17;15.30;99.90
21672;DHT22;10997;52.242;8.168;2022-09-09T00:15:26;15.40;99.90
21672;DHT22;10997;52.242;8.168;2022-09-09T00:20:38;15.30;99.90
21672;DHT22;10997;52.242;8.168;2022-09-09T00:31:18;15.20;99.90
21672;DHT22;10997;52.242;8.168;2022-09-09T00:36:23;15.20;99.90
21672;DHT22;10997;52.242;8.168;2022-09-09T00:47:12;15.10;99.90
21672;DHT22;10997;52.242;8.168;2022-09-09T00:57:33;15.20;99.90
21672;DHT22;10997;52.242;8.168;2022-09-09T01:13:35;15.10;99.90
21672;DHT22;10997;52.242;8.168;2022-09-09T01:18:40;15.10;99.90
21672;DHT22;10997;52.242;8.168;2022-09-09T01:28:51;15.20;99.90
21672;DHT22;10997;52.242;8.168;2022-09-09T01:33:55;15.30;99.90
21672;DHT22;10997;52.242;8.168;2022-09-09T01:38:56;15.30;99.90
21672;DHT22;10997;52.242;8.168;2022-09-09T01:43:57;15.30;99.90
21672;DHT22;10997;52.242;8.168;2022-09-09T01:48:59;15.30;99.90
21672;DHT22;10997;52.242;8.168;2022-09-09T01:54:02;15.30;99.90
21672;DHT22;10997;52.242;8.168;2022-09-09T02:05:20;15.30;99.90
21672;DHT22;10997;52.242;8.168;2022-09-09T02:09:48;15.30;99.90
21672;DHT22;10997;52.242;8.168;2022-09-09T02:14:52;15.30;99.90
21672;DHT22;10997;52.242;8.168;2022-09-09T02:20:03;15.30;99.90
21672;DHT22;10997;52.242;8.168;2022-09-09T02:25:07;15.30;99.90
21672;DHT22;10997;52.242;8.168;2022-09-09T02:30:09;15.40;99.90
21672;DHT22;10997;52.242;8.168;2022-09-09T02:35:13;15.30;99.90
21672;DHT22;10997;52.242;8.168;2022-09-09T02:40:15;15.30;99.90
21672;DHT22;10997;52.242;8.168;2022-09-09T02:45:21;15.30;99.90
21672;DHT22;10997;52.242;8.168;2022-09-09T02:55:48;15.20;99.90
21672;DHT22;10997;52.242;8.168;2022-09-09T03:00:51;15.20;99.90
21672;DHT22;10997;52.242;8.168;2022-09-09T03:05:51;15.20;99.90
21672;DHT22;10997;52.242;8.168;2022-09-09T03:10:54;15.20;99.90
21672;DHT22;10997;52.242;8.168;2022-09-09T03:15:55;15.20;99.90
21672;DHT22;10997;52.242;8.168;2022-09-09T03:20:56;15.20;99.90
21672;DHT22;10997;52.242;8.168;2022-09-09T03:25:57;15.20;99.90
21672;DHT22;10997;52.242;8.168;2022-09-09T03:31:10;15.10;99.90
21672;DHT22;10997;52.242;8.168;2022-09-09T03:36:11;15.10;99.90
21672;DHT22;10997;52.242;8.168;2022-09-09T03:41:11;15.10;99.90
21672;DHT22;10997;52.242;8.168;2022-09-09T03:46:13;15.00;99.90
21672;DHT22;10997;52.242;8.168;2022-09-09T03:51:13;15.00;99.90
21672;DHT22;10997;52.242;8.168;2022-09-09T03:56:15;15.00;99.90
21672;DHT22;10997;52.242;8.168;2022-09-09T04:01:16;15.00;99.90
21672;DHT22;10997;52.242;8.168;2022-09-09T04:06:18;15.00;99.90
21672;DHT22;10997;52.242;8.168;2022-09-09T04:11:20;15.00;99.90
21672;DHT22;10997;52.242;8.168;2022-09-09T04:16:21;15.00;99.90
21672;DHT22;10997;52.242;8.168;2022-09-09T04:21:21;15.00;99.90
21672;DHT22;10997;52.242;8.168;2022-09-09T04:26:23;15.00;99.90
21672;DHT22;10997;52.242;8.168;2022-09-09T04:31:24;15.00;99.90
21672;DHT22;10997;52.242;8.168;2022-09-09T04:36:25;15.00;99.90
21672;DHT22;10997;52.242;8.168;2022-09-09T04:41:25;15.00;99.90
21672;DHT22;10997;52.242;8.168;2022-09-09T04:46:26;15.00;99.90
21672;DHT22;10997;52.242;8.168;2022-09-09T04:51:27;15.00;99.90
21672;DHT22;10997;52.242;8.168;2022-09-09T04:56:28;15.00;99.90
21672;DHT22;10997;52.242;8.168;2022-09-09T05:01:29;15.00;99.90
21672;DHT22;10997;52.242;8.168;2022-09-09T05:06:30;15.00;99.90
21672;DHT22;10997;52.242;8.168;2022-09-09T05:11:33;15.00;99.90
21672;DHT22;10997;52.242;8.168;2022-09-09T05:16:36;15.10;99.90
21672;DHT22;10997;52.242;8.168;2022-09-09T05:21:37;15.10;99.90
21672;DHT22;10997;52.242;8.168;2022-09-09T05:26:37;15.20;99.90
21672;DHT22;10997;52.242;8.168;2022-09-09T05:31:38;15.30;99.90
21672;DHT22;10997;52.242;8.168;2022-09-09T05:36:39;15.30;99.90
21672;DHT22;10997;52.242;8.168;2022-09-09T05:41:40;15.40;99.90
21672;DHT22;10997;52.242;8.168;2022-09-09T05:46:41;15.50;99.90
21672;DHT22;10997;52.242;8.168;2022-09-09T05:51:41;15.60;99.90
21672;DHT22;10997;52.242;8.168;2022-09-09T05:56:43;15.70;99.90
21672;DHT22;10997;52.242;8.168;2022-09-09T06:01:45;15.80;99.90
21672;DHT22;10997;52.242;8.168;2022-09-09T06:06:45;15.80;99.90
21672;DHT22;10997;52.242;8.168;2022-09-09T06:11:46;15.90;99.90
21672;DHT22;10997;52.242;8.168;2022-09-09T06:16:47;16.10;99.90
21672;DHT22;10997;52.242;8.168;2022-09-09T06:21:47;16.20;99.90
21672;DHT22;10997;52.242;8.168;2022-09-09T06:26:49;16.40;99.90
21672;DHT22;10997;52.242;8.168;2022-09-09T06:31:50;16.50;99.90
21672;DHT22;10997;52.242;8.168;2022-09-09T06:36:50;16.70;99.90
21672;DHT22;10997;52.242;8.168;2022-09-09T06:41:52;16.80;99.90
21672;DHT22;10997;52.242;8.168;2022-09-09T06:46:53;16.80;99.90
21672;DHT22;10997;52.242;8.168;2022-09-09T06:51:54;16.80;99.90
21672;DHT22;10997;52.242;8.168;2022-09-09T06:56:54;16.80;99.90
21672;DHT22;10997;52.242;8.168;2022-09-09T07:01:55;16.80;99.90
21672;DHT22;10997;52.242;8.168;2022-09-09T07:06:57;16.90;99.90
21672;DHT22;10997;52.242;8.168;2022-09-09T07:11:59;16.80;99.90
21672;DHT22;10997;52.242;8.168;2022-09-09T07:17:00;16.90;99.90
21672;DHT22;10997;52.242;8.168;2022-09-09T07:22:00;16.90;99.90
21672;DHT22;10997;52.242;8.168;2022-09-09T07:27:03;16.90;99.90
21672;DHT22;10997;52.242;8.168;2022-09-09T07:32:03;16.90;99.90
21672;DHT22;10997;52.242;8.168;2022-09-09T07:37:04;17.00;99.90
21672;DHT22;10997;52.242;8.168;2022-09-09T07:42:05;17.10;99.90
21672;DHT22;10997;52.242;8.168;2022-09-09T07:47:07;17.20;99.90
21672;DHT22;10997;52.242;8.168;2022-09-09T07:52:08;17.30;99.90
21672;DHT22;10997;52.242;8.168;2022-09-09T07:57:08;17.40;99.90
21672;DHT22;10997;52.242;8.168;2022-09-09T08:02:09;17.60;99.90
21672;DHT22;10997;52.242;8.168;2022-09-09T08:07:10;17.80;99.90
21672;DHT22;10997;52.242;8.168;2022-09-09T08:12:11;18.20;99.90
21672;DHT22;10997;52.242;8.168;2022-09-09T08:17:13;18.50;99.90
21672;DHT22;10997;52.242;8.168;2022-09-09T08:22:14;18.60;99.90
21672;DHT22;10997;52.242;8.168;2022-09-09T08:27:15;18.80;99.90
21672;DHT22;10997;52.242;8.168;2022-09-09T08:32:15;18.90;99.90
21672;DHT22;10997;52.242;8.168;2022-09-09T08:37:17;19.10;99.90
21672;DHT22;10997;52.242;8.168;2022-09-09T08:58:26;19.30;99.90
21672;DHT22;10997;52.242;8.168;2022-09-09T09:19:14;19.80;99.90
21672;DHT22;10997;52.242;8.168;2022-09-09T09:24:51;19.90;99.90
21672;DHT22;10997;52.242;8.168;2022-09-09T09:29:54;19.90;99.90
21672;DHT22;10997;52.242;8.168;2022-09-09T09:34:58;20.20;99.90
21672;DHT22;10997;52.242;8.168;2022-09-09T09:40:10;20.20;99.90
21672;DHT22;10997;52.242;8.168;2022-09-09T09:45:32;20.00;99.90
21672;DHT22;10997;52.242;8.168;2022-09-09T09:50:34;20.00;99.90
21672;DHT22;10997;52.242;8.168;2022-09-09T09:55:36;20.10;99.90
21672;DHT22;10997;52.242;8.168;2022-09-09T10:00:51;20.60;99.90
21672;DHT22;10997;52.242;8.168;2022-09-09T10:05:53;20.50;99.90
21672;DHT22;10997;52.242;8.168;2022-09-09T10:11:22;20.80;99.90
21672;DHT22;10997;52.242;8.168;2022-09-09T10:16:31;21.30;99.90
21672;DHT22;10997;52.242;8.168;2022-09-09T10:43:16;22.00;99.90
21672;DHT22;10997;52.242;8.168;2022-09-09T10:49:01;22.30;99.90
21672;DHT22;10997;52.242;8.168;2022-09-09T10:59:29;23.10;99.90
21672;DHT22;10997;52.242;8.168;2022-09-09T11:04:39;22.90;99.90
21672;DHT22;10997;52.242;8.168;2022-09-09T11:09:49;23.10;99.90
21672;DHT22;10997;52.242;8.168;2022-09-09T11:15:17;23.30;99.90
21672;DHT22;10997;52.242;8.168;2022-09-09T11:20:19;22.80;99.90
21672;DHT22;10997;52.242;8.168;2022-09-09T11:25:26;23.30;99.90
21672;DHT22;10997;52.242;8.168;2022-09-09T11:41:40;23.40;99.90
21672;DHT22;10997;52.242;8.168;2022-09-09T11:46:42;22.50;99.90
21672;DHT22;10997;52.242;8.168;2022-09-09T11:51:42;22.10;99.90
21672;DHT22;10997;52.242;8.168;2022-09-09T11:56:44;22.20;99.90
21672;DHT22;10997;52.242;8.168;2022-09-09T12:01:48;22.90;99.90
21672;DHT22;10997;52.242;8.168;2022-09-09T12:06:51;22.70;99.90
21672;DHT22;10997;52.242;8.168;2022-09-09T12:11:53;22.10;99.90
21672;DHT22;10997;52.242;8.168;2022-09-09T12:17:26;21.40;99.90
21672;DHT22;10997;52.242;8.168;2022-09-09T12:33:18;19.90;99.90
21672;DHT22;10997;52.242;8.168;2022-09-09T12:38:37;20.20;99.90
21672;DHT22;10997;52.242;8.168;2022-09-09T12:43:38;20.30;99.90
21672;DHT22;10997;52.242;8.168;2022-09-09T12:48:40;20.40;99.90
21672;DHT22;10997;52.242;8.168;2022-09-09T12:53:45;21.00;99.90
21672;DHT22;10997;52.242;8.168;2022-09-09T12:58:47;21.50;99.90
21672;DHT22;10997;52.242;8.168;2022-09-09T13:03:49;22.10;99.90
21672;DHT22;10997;52.242;8.168;2022-09-09T13:08:52;22.90;99.90
21672;DHT22;10997;52.242;8.168;2022-09-09T13:13:54;22.70;99.90
21672;DHT22;10997;52.242;8.168;2022-09-09T13:18:56;22.80;99.90
21672;DHT22;10997;52.242;8.168;2022-09-09T13:23:57;23.10;99.90
21672;DHT22;10997;52.242;8.168;2022-09-09T13:29:20;22.70;99.90
21672;DHT22;10997;52.242;8.168;2022-09-09T13:34:34;22.70;99.90
21672;DHT22;10997;52.242;8.168;2022-09-09T13:39:38;22.80;99.90
21672;DHT22;10997;52.242;8.168;2022-09-09T13:44:40;22.90;99.90
21672;DHT22;10997;52.242;8.168;2022-09-09T13:49:42;22.40;99.90
21672;DHT22;10997;52.242;8.168;2022-09-09T13:54:47;22.10;99.90
21672;DHT22;10997;52.242;8.168;2022-09-09T13:59:48;21.90;99.90
21672;DHT22;10997;52.242;8.168;2022-09-09T14:04:49;22.10;99.90
21672;DHT22;10997;52.242;8.168;2022-09-09T14:09:51;22.20;99.90
21672;DHT22;10997;52.242;8.168;2022-09-09T14:14:54;22.70;99.90
21672;DHT22;10997;52.242;8.168;2022-09-09T14:19:55;23.00;99.90
21672;DHT22;10997;52.242;8.168;2022-09-09T14:24:56;22.80;99.90
21672;DHT22;10997;52.242;8.168;2022-09-09T14:29:58;22.30;99.90
21672;DHT22;10997;52.242;8.168;2022-09-09T14:35:00;21.90;99.90
21672;DHT22;10997;52.242;8.168;2022-09-09T14:40:01;21.70;99.90
21672;DHT22;10997;52.242;8.168;2022-09-09T14:45:02;21.30;99.90
21672;DHT22;10997;52.242;8.168;2022-09-09T14:50:03;20.50;99.90
21672;DHT22;10997;52.242;8.168;2022-09-09T14:55:05;19.30;99.90
21672;DHT22;10997;52.242;8.168;2022-09-09T15:00:07;18.80;99.90
21672;DHT22;10997;52.242;8.168;2022-09-09T15:05:09;18.90;99.90
21672;DHT22;10997;52.242;8.168;2022-09-09T15:10:09;19.30;99.90
21672;DHT22;10997;52.242;8.168;2022-09-09T15:15:11;19.50;99.90
21672;DHT22;10997;52.242;8.168;2022-09-09T15:20:13;19.70;99.90
21672;DHT22;10997;52.242;8.168;2022-09-09T15:25:13;20.00;99.90
21672;DHT22;10997;52.242;8.168;2022-09-09T15:30:14;20.20;99.90
21672;DHT22;10997;52.242;8.168;2022-09-09T15:35:15;20.10;99.90
21672;DHT22;10997;52.242;8.168;2022-09-09T15:40:15;20.10;99.90
21672;DHT22;10997;52.242;8.168;2022-09-09T15:45:16;19.90;99.90
21672;DHT22;10997;52.242;8.168;2022-09-09T15:50:17;19.40;99.90
21672;DHT22;10997;52.242;8.168;2022-09-09T15:55:19;19.00;99.90
21672;DHT22;10997;52.242;8.168;2022-09-09T16:00:24;18.80;99.90
21672;DHT22;10997;52.242;8.168;2022-09-09T16:05:25;18.50;99.90
21672;DHT22;10997;52.242;8.168;2022-09-09T16:10:26;18.50;99.90
21672;DHT22;10997;52.242;8.168;2022-09-09T16:15:26;18.30;99.90
21672;DHT22;10997;52.242;8.168;2022-09-09T16:20:27;18.50;99.90
21672;DHT22;10997;52.242;8.168;2022-09-09T16:25:28;18.60;99.90
21672;DHT22;10997;52.242;8.168;2022-09-09T16:30:43;18.60;99.90
21672;DHT22;10997;52.242;8.168;2022-09-09T16:35:44;18.70;99.90
21672;DHT22;10997;52.242;8.168;2022-09-09T16:40:45;18.50;99.90
21672;DHT22;10997;52.242;8.168;2022-09-09T16:45:45;18.30;99.90
21672;DHT22;10997;52.242;8.168;2022-09-09T16:50:46;18.30;99.90
21672;DHT22;10997;52.242;8.168;2022-09-09T16:55:47;18.40;99.90
21672;DHT22;10997;52.242;8.168;2022-09-09T17:00:48;18.30;99.90
21672;DHT22;10997;52.242;8.168;2022-09-09T17:05:49;18.20;99.90
21672;DHT22;10997;52.242;8.168;2022-09-09T17:10:50;18.10;99.90
21672;DHT22;10997;52.242;8.168;2022-09-09T17:15:51;18.00;99.90
21672;DHT22;10997;52.242;8.168;2022-09-09T17:20:52;17.90;99.90
21672;DHT22;10997;52.242;8.168;2022-09-09T17:25:57;17.80;99.90
21672;DHT22;10997;52.242;8.168;2022-09-09T17:30:58;17.70;99.90
21672;DHT22;10997;52.242;8.168;2022-09-09T17:41:13;17.50;99.90
21672;DHT22;10997;52.242;8.168;2022-09-09T17:46:16;17.40;99.90
21672;DHT22;10997;52.242;8.168;2022-09-09T17:51:20;17.20;99.90
21672;DHT22;10997;52.242;8.168;2022-09-09T17:56:25;17.00;99.90
21672;DHT22;10997;52.242;8.168;2022-09-09T18:01:29;16.80;99.90
21672;DHT22;10997;52.242;8.168;2022-09-09T18:06:35;16.50;99.90
21672;DHT22;10997;52.242;8.168;2022-09-09T18:11:39;16.30;99.90
21672;DHT22;10997;52.242;8.168;2022-09-09T18:16:42;16.20;99.90
21672;DHT22;10997;52.242;8.168;2022-09-09T18:21:44;16.00;99.90
21672;DHT22;10997;52.242;8.168;2022-09-09T18:26:45;15.90;99.90
21672;DHT22;10997;52.242;8.168;2022-09-09T18:31:47;15.80;99.90
21672;DHT22;10997;52.242;8.168;2022-09-09T18:36:52;15.80;99.90
21672;DHT22;10997;52.242;8.168;2022-09-09T18:41:56;15.80;99.90
21672;DHT22;10997;52.242;8.168;2022-09-09T18:47:00;15.80;99.90
21672;DHT22;10997;52.242;8.168;2022-09-09T18:52:01;15.80;99.90
21672;DHT22;10997;52.242;8.168;2022-09-09T18:57:02;15.70;99.90
21672;DHT22;10997;52.242;8.168;2022-09-09T19:02:03;15.70;99.90
21672;DHT22;10997;52.242;8.168;2022-09-09T19:07:04;15.70;99.90
21672;DHT22;10997;52.242;8.168;2022-09-09T19:12:05;15.60;99.90
21672;DHT22;10997;52.242;8.168;2022-09-09T19:17:06;15.60;99.90
21672;DHT22;10997;52.242;8.168;2022-09-09T19:22:07;15.60;99.90
21672;DHT22;10997;52.242;8.168;2022-09-09T19:27:11;15.60;99.90
21672;DHT22;10997;52.242;8.168;2022-09-09T19:32:11;15.50;99.90
21672;DHT22;10997;52.242;8.168;2022-09-09T19:37:12;15.50;99.90
21672;DHT22;10997;52.242;8.168;2022-09-09T19:42:13;15.50;99.90
21672;DHT22;10997;52.242;8.168;2022-09-09T19:47:14;15.50;99.90
21672;DHT22;10997;52.242;8.168;2022-09-09T19:52:15;15.40;99.90
21672;DHT22;10997;52.242;8.168;2022-09-09T19:57:16;15.40;99.90
21672;DHT22;10997;52.242;8.168;2022-09-09T20:02:19;15.40;99.90
21672;DHT22;10997;52.242;8.168;2022-09-09T20:07:20;15.50;99.90
21672;DHT22;10997;52.242;8.168;2022-09-09T20:12:23;15.50;99.90
21672;DHT22;10997;52.242;8.168;2022-09-09T20:17:24;15.50;99.90
21672;DHT22;10997;52.242;8.168;2022-09-09T20:22:25;15.60;99.90
21672;DHT22;10997;52.242;8.168;2022-09-09T20:27:25;15.70;99.90
21672;DHT22;10997;52.242;8.168;2022-09-09T20:32:27;15.70;99.90
21672;DHT22;10997;52.242;8.168;2022-09-09T20:37:29;15.70;99.90
21672;DHT22;10997;52.242;8.168;2022-09-09T20:42:31;15.70;99.90
21672;DHT22;10997;52.242;8.168;2022-09-09T20:47:31;15.70;99.90
21672;DHT22;10997;52.242;8.168;2022-09-09T20:52:32;15.70;99.90
21672;DHT22;10997;52.242;8.168;2022-09-09T20:57:34;15.70;99.90
21672;DHT22;10997;52.242;8.168;2022-09-09T21:02:35;15.70;99.90
21672;DHT22;10997;52.242;8.168;2022-09-09T21:07:36;15.80;99.90
21672;DHT22;10997;52.242;8.168;2022-09-09T21:12:37;15.80;99.90
21672;DHT22;10997;52.242;8.168;2022-09-09T21:17:38;15.80;99.90
21672;DHT22;10997;52.242;8.168;2022-09-09T21:22:39;15.70;99.90
21672;DHT22;10997;52.242;8.168;2022-09-09T21:27:40;15.60;99.90
21672;DHT22;10997;52.242;8.168;2022-09-09T21:32:40;15.50;99.90
21672;DHT22;10997;52.242;8.168;2022-09-09T21:37:41;15.50;99.90
21672;DHT22;10997;52.242;8.168;2022-09-09T21:42:42;15.50;99.90
21672;DHT22;10997;52.242;8.168;2022-09-09T21:47:44;15.40;99.90
21672;DHT22;10997;52.242;8.168;2022-09-09T21:52:46;15.40;99.90
21672;DHT22;10997;52.242;8.168;2022-09-09T21:57:47;15.40;99.90
21672;DHT22;10997;52.242;8.168;2022-09-09T22:02:49;15.40;99.90
21672;DHT22;10997;52.242;8.168;2022-09-09T22:07:50;15.40;99.90
21672;DHT22;10997;52.242;8.168;2022-09-09T22:12:52;15.50;99.90
21672;DHT22;10997;52.242;8.168;2022-09-09T22:17:53;15.40;99.90
21672;DHT22;10997;52.242;8.168;2022-09-09T22:22:54;15.40;99.90
21672;DHT22;10997;52.242;8.168;2022-09-09T22:27:55;15.40;99.90
21672;DHT22;10997;52.242;8.168;2022-09-09T22:32:56;15.40;99.90
21672;DHT22;10997;52.242;8.168;2022-09-09T22:37:58;15.40;99.90
21672;DHT22;10997;52.242;8.168;2022-09-09T22:42:59;15.40;99.90
21672;DHT22;10997;52.242;8.168;2022-09-09T22:48:00;15.40;99.90
21672;DHT22;10997;52.242;8.168;2022-09-09T22:53:01;15.40;99.90
21672;DHT22;10997;52.242;8.168;2022-09-09T22:58:03;15.40;99.90
21672;DHT22;10997;52.242;8.168;2022-09-09T23:03:04;15.40;99.90
21672;DHT22;10997;52.242;8.168;2022-09-09T23:08:05;15.40;99.90
21672;DHT22;10997;52.242;8.168;2022-09-09T23:13:06;15.40;99.90
21672;DHT22;10997;52.242;8.168;2022-09-09T23:18:08;15.40;99.90
21672;DHT22;10997;52.242;8.168;2022-09-09T23:23:12;15.40;99.90
21672;DHT22;10997;52.242;8.168;2022-09-09T23:28:13;15.40;99.90
21672;DHT22;10997;52.242;8.168;2022-09-09T23:33:14;15.40;99.90
21672;DHT22;10997;52.242;8.168;2022-09-09T23:38:14;15.50;99.90
21672;DHT22;10997;52.242;8.168;2022-09-09T23:43:15;15.40;99.90
21672;DHT22;10997;52.242;8.168;2022-09-09T23:48:16;15.50;99.90
21672;DHT22;10997;52.242;8.168;2022-09-09T23:53:17;15.50;99.90
21672;DHT22;10997;52.242;8.168;2022-09-09T23:58:18;15.40;99.90
